Time;durP1;ratioP1;P1;durP2;ratioP2;P2;SDS_P1;SDS_P2;PMS_P1;PMS_P2;Temp;Humidity;BMP_temperature;BMP_pressure;BME280_temperature;BME280_humidity;BME280_pressure;Samples;Min_cycle;Max_cycle;Signal;HPM_P1;HPM_P2
2022/06/22 00:03:51;;;;;;;3.75;2.38;;;;;;;18.14;54.94;99245.41;12204489;19;20014;-82
2022/06/22 00:07:57;;;;;;;3.63;1.83;;;;;;;18.19;54.40;99239.72;12187688;19;20006;-82
2022/06/22 00:12:00;;;;;;;4.68;1.88;;;;;;;18.21;53.75;99253.38;12211060;19;20162;-81
2022/06/22 00:16:01;;;;;;;;;;;;;;;18.25;53.66;99257.16;12210598;19;20125;-81
2022/06/22 00:20:22;;;;;;;5.90;1.70;;;;;;;18.30;53.63;99250.66;12195854;19;19914;-82
2022/06/22 00:24:23;;;;;;;4.05;1.80;;;;;;;18.28;53.34;99236.19;12216096;19;20003;-81
2022/06/22 00:28:34;;;;;;;5.18;1.98;;;;;;;18.25;53.37;99225.69;12214233;19;20356;-81
2022/06/22 00:32:35;;;;;;;5.60;1.88;;;;;;;18.26;53.34;99230.09;12185053;19;20010;-82
2022/06/22 00:36:59;;;;;;;3.63;1.58;;;;;;;18.24;53.37;99232.41;12203726;19;20034;-82
2022/06/22 00:41:14;;;;;;;3.22;1.75;;;;;;;18.31;53.46;99230.00;12182517;19;20119;-81
2022/06/22 00:45:28;;;;;;;3.25;1.60;;;;;;;18.34;53.14;99232.16;12211023;19;20038;-82
2022/06/22 00:49:31;;;;;;;3.65;2.00;;;;;;;18.27;53.40;99227.00;12210919;19;20050;-82
2022/06/22 00:53:41;;;;;;;4.97;2.78;;;;;;;18.22;53.75;99227.94;12190750;19;20358;-82
2022/06/22 00:57:49;;;;;;;2.72;1.90;;;;;;;18.14;53.72;99227.88;12211472;19;20425;-82
2022/06/22 01:02:12;;;;;;;4.00;2.13;;;;;;;18.01;54.33;99215.63;12192908;19;20078;-82
2022/06/22 01:06:25;;;;;;;2.70;1.80;;;;;;;17.94;54.29;99207.69;12201801;19;20349;-81
2022/06/22 01:10:32;;;;;;;;;;;;;;;17.82;54.87;99203.78;12242982;19;20041;-82
2022/06/22 01:14:34;;;;;;;2.63;1.45;;;;;;;17.84;54.45;99213.47;12182194;19;19915;-81
2022/06/22 01:18:44;;;;;;;3.35;1.88;;;;;;;17.81;54.32;99205.75;12205935;19;20055;-81
2022/06/22 01:23:18;;;;;;;3.67;1.85;;;;;;;17.86;54.23;99214.00;12189487;19;20011;-82
2022/06/22 01:27:35;;;;;;;5.85;1.55;;;;;;;17.90;54.17;99225.34;12214374;19;20010;-82
2022/06/22 01:31:43;;;;;;;4.82;2.38;;;;;;;17.82;54.57;99214.94;12213205;19;20021;-82
2022/06/22 01:35:45;;;;;;;3.85;1.70;;;;;;;17.76;54.53;99219.78;12184761;19;20002;-81
2022/06/22 01:39:47;;;;;;;5.15;2.13;;;;;;;17.65;55.40;99213.59;12209452;19;20038;-81
2022/06/22 01:43:52;;;;;;;3.73;1.70;;;;;;;17.65;55.09;99208.03;12191574;19;20410;-82
2022/06/22 01:48:03;;;;;;;4.03;1.58;;;;;;;17.63;55.14;99198.31;12208742;19;20320;-82
2022/06/22 01:52:14;;;;;;;1.98;1.58;;;;;;;17.58;55.61;99204.00;12207470;19;20028;-81
2022/06/22 01:56:25;;;;;;;3.67;1.52;;;;;;;17.48;55.90;99202.25;12185368;19;20006;-81
2022/06/22 02:00:26;;;;;;;3.60;2.00;;;;;;;17.43;55.74;99196.78;12213080;19;20033;-81
2022/06/22 02:04:34;;;;;;;2.95;1.50;;;;;;;17.36;56.11;99179.66;12206406;19;20042;-81
2022/06/22 02:08:40;;;;;;;6.43;1.63;;;;;;;17.28;56.00;99192.34;12188386;19;20591;-81
2022/06/22 02:12:48;;;;;;;5.60;1.75;;;;;;;17.27;55.90;99188.75;12202530;19;20007;-82
2022/06/22 02:16:53;;;;;;;3.90;2.15;;;;;;;17.28;55.75;99190.41;12182814;19;20010;-82
2022/06/22 02:20:59;;;;;;;2.33;1.52;;;;;;;17.30;56.08;99192.88;12211769;19;20090;-81
2022/06/22 02:25:01;;;;;;;3.60;1.40;;;;;;;17.34;56.29;99209.78;12213157;19;20784;-81
2022/06/22 02:29:06;;;;;;;4.32;1.58;;;;;;;17.39;56.01;99202.16;12183517;19;20022;-82
2022/06/22 02:33:09;;;;;;;3.27;1.90;;;;;;;17.40;55.91;99194.63;12209494;19;20035;-82
2022/06/22 02:37:10;;;;;;;3.45;1.77;;;;;;;17.32;56.27;99179.47;12204243;19;20015;-83
2022/06/22 02:45:42;;;;;;;2.47;1.65;;;;;;;17.26;56.44;99170.41;12201631;19;20018;-81
2022/06/22 02:49:50;;;;;;;2.50;1.33;;;;;;;17.31;56.62;99172.22;12210441;19;20377;-82
2022/06/22 02:53:55;;;;;;;2.75;1.45;;;;;;;17.34;56.64;99171.66;12177908;19;20028;-83
2022/06/22 02:57:59;;;;;;;4.80;1.63;;;;;;;17.41;56.43;99165.66;12199826;19;20486;-82
2022/06/22 03:02:03;;;;;;;3.47;1.50;;;;;;;17.44;56.80;99145.53;12187617;19;20034;-82
2022/06/22 03:06:09;;;;;;;2.45;1.75;;;;;;;17.43;57.02;99144.72;12201962;19;20007;-82
2022/06/22 03:10:40;;;;;;;2.17;1.27;;;;;;;17.47;57.37;99151.28;12203700;19;20014;-82
2022/06/22 03:15:03;;;;;;;3.38;1.60;;;;;;;17.56;56.95;99156.97;12180293;19;20085;-82
2022/06/22 03:19:11;;;;;;;3.95;1.90;;;;;;;17.58;56.77;99163.06;12196615;19;20011;-81
2022/06/22 03:23:31;;;;;;;3.72;1.60;;;;;;;17.61;56.64;99179.16;12188431;19;20476;-81
2022/06/22 03:27:37;;;;;;;2.85;1.80;;;;;;;17.65;56.28;99182.94;12207312;19;20086;-80
2022/06/22 03:31:46;;;;;;;3.58;1.70;;;;;;;17.58;57.12;99188.13;12201242;19;20042;-81
2022/06/22 03:35:59;;;;;;;3.85;1.70;;;;;;;17.61;56.68;99193.06;12168521;19;20002;-81
2022/06/22 03:40:09;;;;;;;3.15;2.00;;;;;;;17.62;56.70;99193.91;12199860;19;20580;-80
2022/06/22 03:44:27;;;;;;;2.05;1.40;;;;;;;17.62;56.89;99200.28;12208458;19;20010;-81
2022/06/22 03:48:35;;;;;;;2.42;1.70;;;;;;;17.56;57.24;99209.88;12198486;19;20093;-81
2022/06/22 03:52:42;;;;;;;7.07;1.90;;;;;;;17.57;57.22;99217.09;12200190;19;20621;-80
2022/06/22 03:56:48;;;;;;;3.78;1.63;;;;;;;17.60;56.81;99218.44;12179652;19;20031;-80
2022/06/22 04:00:50;;;;;;;2.42;1.63;;;;;;;17.60;56.75;99218.44;12202648;19;20522;-81
2022/06/22 04:04:54;;;;;;;3.50;1.90;;;;;;;17.57;57.79;99224.63;12190105;19;20023;-81
2022/06/22 04:08:55;;;;;;;3.42;1.45;;;;;;;17.57;57.64;99233.81;12210582;19;20247;-79
2022/06/22 04:13:00;;;;;;;4.60;1.90;;;;;;;17.51;58.23;99230.31;12204470;19;20011;-80
2022/06/22 04:17:08;;;;;;;3.40;2.13;;;;;;;17.55;57.93;99230.53;12188481;19;20027;-80
2022/06/22 04:21:13;;;;;;;4.60;1.70;;;;;;;17.61;58.03;99232.06;12220611;19;20608;-80
2022/06/22 04:25:32;;;;;;;2.75;1.73;;;;;;;17.66;58.10;99233.91;12218353;19;20058;-80
2022/06/22 04:29:41;;;;;;;3.00;1.33;;;;;;;17.71;57.79;99220.69;12186623;19;20011;-81
2022/06/22 04:33:48;;;;;;;2.65;1.48;;;;;;;17.76;57.80;99226.19;12211727;19;20006;-81
2022/06/22 04:37:57;;;;;;;2.72;1.80;;;;;;;17.88;57.59;99222.88;12194678;19;20594;-81
2022/06/22 04:42:01;;;;;;;4.82;1.63;;;;;;;17.90;57.66;99230.91;12207427;19;20034;-82
2022/06/22 04:46:06;;;;;;;5.18;1.75;;;;;;;17.96;56.71;99233.28;12205233;19;20013;-81
2022/06/22 04:50:12;;;;;;;2.88;1.77;;;;;;;18.02;57.14;99220.03;12192459;19;20333;-80
2022/06/22 04:54:31;;;;;;;4.45;1.60;;;;;;;18.12;57.74;99224.59;12207170;19;20462;-79
2022/06/22 04:58:46;;;;;;;4.10;2.00;;;;;;;18.26;57.41;99221.75;12210377;19;20011;-80
2022/06/22 05:02:56;;;;;;;3.20;2.00;;;;;;;18.35;56.99;99225.41;12188287;19;20015;-80
2022/06/22 05:07:06;;;;;;;2.90;1.80;;;;;;;18.36;57.24;99230.69;12210810;19;20028;-80
2022/06/22 05:11:14;;;;;;;4.45;1.50;;;;;;;18.35;57.20;99239.38;12188780;19;20010;-80
2022/06/22 05:15:23;;;;;;;4.22;2.08;;;;;;;18.42;57.32;99231.41;12209734;19;20029;-80
2022/06/22 05:19:40;;;;;;;3.35;2.05;;;;;;;18.39;57.32;99238.44;12210214;19;20007;-80
2022/06/22 05:23:48;;;;;;;3.17;1.75;;;;;;;18.47;57.39;99250.78;12189371;19;20007;-81
2022/06/22 05:28:04;;;;;;;4.20;2.05;;;;;;;18.57;57.35;99258.94;12207273;19;20030;-81
2022/06/22 05:32:11;;;;;;;5.25;2.00;;;;;;;18.74;56.70;99260.22;12188116;19;20074;-81
2022/06/22 05:36:14;;;;;;;3.38;1.80;;;;;;;18.80;56.36;99248.63;12206724;19;20010;-81
2022/06/22 05:40:16;;;;;;;7.60;2.10;;;;;;;19.02;56.27;99275.69;12211262;19;20019;-81
2022/06/22 05:44:20;;;;;;;5.05;1.30;;;;;;;19.32;55.34;99274.03;12191166;19;20019;-80
2022/06/22 05:48:26;;;;;;;5.63;2.10;;;;;;;19.52;54.54;99275.44;12204784;19;20407;-79
2022/06/22 05:52:53;;;;;;;4.70;2.00;;;;;;;19.71;54.14;99291.16;12207465;19;20018;-80
2022/06/22 05:57:15;;;;;;;3.33;1.60;;;;;;;19.77;53.43;99306.66;12182273;19;20006;-81
2022/06/22 06:01:59;;;;;;;2.28;1.63;;;;;;;19.79;53.18;99290.38;12206908;19;20074;-80
2022/06/22 06:06:23;;;;;;;3.33;1.90;;;;;;;19.84;53.46;99295.00;12192913;19;20086;-80
2022/06/22 06:10:43;;;;;;;3.42;1.70;;;;;;;19.83;53.70;99299.75;12213198;19;20011;-81
2022/06/22 06:14:48;;;;;;;3.03;1.85;;;;;;;19.67;54.17;99301.38;12189451;19;20043;-81
2022/06/22 06:18:52;;;;;;;4.55;1.73;;;;;;;19.51;54.36;99298.97;12208393;19;20007;-80
2022/06/22 06:23:01;;;;;;;2.80;1.73;;;;;;;19.29;54.46;99302.63;12195208;19;20092;-81
2022/06/22 06:31:57;;;;;;;8.07;1.90;;;;;;;19.35;54.51;99290.16;12211334;19;20030;-81
2022/06/22 06:36:17;;;;;;;4.03;1.80;;;;;;;19.54;54.07;99298.31;12182321;19;20007;-81
2022/06/22 06:40:31;;;;;;;3.92;1.77;;;;;;;19.65;54.34;99301.66;12202611;19;20007;-82
2022/06/22 06:44:43;;;;;;;2.67;1.80;;;;;;;19.64;54.68;99294.41;12180707;19;20492;-82
2022/06/22 06:48:51;;;;;;;7.30;2.35;;;;;;;19.89;54.34;99278.06;12197111;19;20003;-82
2022/06/22 06:53:18;;;;;;;7.78;1.77;;;;;;;20.25;53.35;99273.03;12189299;19;20406;-82
2022/06/22 06:57:22;;;;;;;2.17;1.73;;;;;;;20.47;53.26;99271.25;12209194;19;20018;-82
2022/06/22 07:01:29;;;;;;;6.10;1.60;;;;;;;20.73;52.33;99276.88;12210606;19;20350;-82
2022/06/22 07:05:31;;;;;;;5.13;2.05;;;;;;;21.01;52.21;99280.13;12184844;19;20014;-82
2022/06/22 07:09:37;;;;;;;4.03;1.92;;;;;;;21.17;51.68;99270.03;12202146;19;20032;-82
2022/06/22 07:13:50;;;;;;;6.00;2.05;;;;;;;21.42;51.59;99267.53;12199695;19;20028;-82
2022/06/22 07:17:54;;;;;;;;;;;;;;;21.72;51.30;99262.78;12186901;19;20520;-82
2022/06/22 07:22:05;;;;;;;4.60;2.13;;;;;;;22.10;50.40;99266.69;12204929;19;19922;-82
2022/06/22 07:26:21;;;;;;;4.05;1.63;;;;;;;22.46;48.45;99266.16;12188719;19;20476;-82
2022/06/22 07:30:46;;;;;;;2.63;1.50;;;;;;;22.82;47.30;99259.06;12212548;19;20013;-82
2022/06/22 07:35:30;;;;;;;4.00;1.80;;;;;;;23.28;46.93;99257.09;12201721;19;20006;-82
2022/06/22 07:39:46;;;;;;;3.75;1.88;;;;;;;23.75;45.76;99251.09;12107368;19;2004562;-82
2022/06/22 07:44:00;;;;;;;2.97;1.77;;;;;;;24.38;44.83;99254.31;12222072;19;20011;-82
2022/06/22 07:48:06;;;;;;;2.58;1.92;;;;;;;24.85;43.50;99253.69;12198494;19;20049;-82
2022/06/22 07:52:14;;;;;;;3.17;2.10;;;;;;;25.26;40.90;99257.28;12220911;19;20003;-82
2022/06/22 07:56:31;;;;;;;3.25;1.70;;;;;;;25.50;39.92;99256.31;12200070;19;20018;-81
2022/06/22 08:00:36;;;;;;;2.78;1.88;;;;;;;25.54;40.24;99250.75;12218719;19;20031;-81
2022/06/22 08:04:47;;;;;;;5.85;1.98;;;;;;;25.72;39.99;99248.38;12209188;19;20014;-80
2022/06/22 08:08:55;;;;;;;2.75;1.90;;;;;;;26.12;39.33;99248.19;12185047;19;20013;-81
2022/06/22 08:13:09;;;;;;;5.72;1.90;;;;;;;26.41;38.44;99255.28;12214414;19;20086;-81
2022/06/22 08:17:36;;;;;;;2.45;1.63;;;;;;;26.79;38.89;99262.97;12185860;19;20011;-82
2022/06/22 08:21:44;;;;;;;9.10;1.98;;;;;;;27.06;36.70;99263.13;12218865;19;20018;-82
2022/06/22 08:25:48;;;;;;;5.75;2.33;;;;;;;27.17;36.87;99269.03;12220070;19;20006;-81
2022/06/22 08:29:52;;;;;;;4.65;1.98;;;;;;;27.49;35.92;99256.28;12189288;19;20010;-81
2022/06/22 08:33:59;;;;;;;3.28;1.70;;;;;;;27.55;34.37;99262.47;12207680;19;20023;-81
2022/06/22 08:38:09;;;;;;;4.07;1.95;;;;;;;27.66;34.22;99262.63;12194104;19;20131;-82
2022/06/22 08:42:23;;;;;;;3.30;1.60;;;;;;;27.63;34.29;99257.72;12207818;19;20082;-81
2022/06/22 08:47:01;;;;;;;3.67;1.90;;;;;;;27.40;33.43;99252.09;12211607;19;20011;-81
2022/06/22 08:51:32;;;;;;;6.38;1.92;;;;;;;27.33;34.25;99249.09;12188722;19;20442;-82
2022/06/22 08:55:53;;;;;;;3.58;1.55;;;;;;;27.37;34.35;99248.00;12210991;19;20021;-84
2022/06/22 09:00:17;;;;;;;4.15;1.80;;;;;;;27.79;34.21;99241.47;12189715;19;20485;-83
2022/06/22 09:04:28;;;;;;;2.42;1.80;;;;;;;28.15;34.40;99239.19;12208602;19;20045;-82
2022/06/22 09:09:01;;;;;;;4.90;1.98;;;;;;;28.24;33.21;99236.88;12184115;19;20015;-83
2022/06/22 09:13:21;;;;;;;3.28;1.70;;;;;;;28.26;33.14;99230.81;12212822;19;20018;-84
2022/06/22 09:17:50;;;;;;;6.50;2.15;;;;;;;28.11;32.02;99226.97;12190556;19;20196;-84
2022/06/22 09:22:06;;;;;;;4.57;2.33;;;;;;;28.10;32.35;99248.00;12213054;19;20067;-83
2022/06/22 09:26:13;;;;;;;3.97;2.15;;;;;;;28.40;32.26;99245.19;12194028;19;20015;-83
2022/06/22 09:30:35;;;;;;;4.28;1.67;;;;;;;28.54;32.16;99251.09;12206270;19;20767;-83
2022/06/22 09:35:00;;;;;;;3.70;1.90;;;;;;;28.78;31.86;99249.78;12216011;19;20010;-83
2022/06/22 09:39:12;;;;;;;2.97;1.60;;;;;;;28.96;30.28;99255.66;12182631;19;20058;-84
2022/06/22 09:43:40;;;;;;;3.10;1.60;;;;;;;29.19;30.42;99249.88;12206689;19;20011;-85
2022/06/22 09:48:02;;;;;;;2.45;1.70;;;;;;;29.08;30.07;99249.75;12196320;19;20036;-84
2022/06/22 09:52:31;;;;;;;3.85;1.48;;;;;;;28.94;29.97;99241.03;12224849;19;20014;-84
2022/06/22 09:56:58;;;;;;;5.38;1.77;;;;;;;28.99;30.67;99240.72;12190504;19;20010;-83
2022/06/22 10:01:26;;;;;;;3.08;1.58;;;;;;;29.07;29.58;99242.47;12213370;19;20078;-83
2022/06/22 10:06:08;;;;;;;4.10;1.83;;;;;;;29.18;29.84;99245.41;12184894;19;20010;-85
2022/06/22 10:10:40;;;;;;;3.20;1.80;;;;;;;29.84;29.59;99257.00;12204154;19;20020;-82
2022/06/22 10:15:06;;;;;;;4.97;1.70;;;;;;;30.10;27.88;99249.47;12190253;19;20556;-84
2022/06/22 10:19:28;;;;;;;3.63;1.67;;;;;;;30.15;28.04;99249.13;12218253;19;20018;-82
2022/06/22 10:24:07;;;;;;;4.20;1.95;;;;;;;30.12;27.58;99247.06;12195470;19;20073;-82
2022/06/22 10:28:35;;;;;;;2.65;1.60;;;;;;;30.41;27.91;99251.75;12208121;19;20468;-82
2022/06/22 10:33:15;;;;;;;3.47;1.85;;;;;;;30.50;28.00;99259.09;12191914;19;20033;-82
2022/06/22 10:37:27;;;;;;;2.57;1.73;;;;;;;30.76;26.82;99255.19;12186411;19;20014;-81
2022/06/22 10:46:19;;;;;;;5.07;2.13;;;;;;;31.03;26.62;99259.38;12230947;19;20013;-82
2022/06/22 10:50:35;;;;;;;3.78;2.00;;;;;;;31.13;26.68;99265.50;12201931;19;20032;-82
2022/06/22 10:54:54;;;;;;;3.85;2.03;;;;;;;31.04;27.11;99263.84;12195050;19;20390;-82
2022/06/22 10:59:20;;;;;;;6.82;2.10;;;;;;;31.10;27.40;99267.09;12210745;19;20018;-82
2022/06/22 11:04:27;;;;;;;2.78;2.05;;;;;;;31.17;26.44;99269.16;12204475;19;19998;-81
2022/06/22 11:09:15;;;;;;;4.95;2.10;;;;;;;31.18;26.23;99267.94;12180201;19;20034;-83
2022/06/22 11:13:28;;;;;;;3.75;2.28;;;;;;;31.25;26.78;99273.66;12211144;19;20075;-82
2022/06/22 11:18:10;;;;;;;4.47;2.55;;;;;;;31.32;27.07;99271.66;12187675;19;20399;-81
2022/06/22 11:22:32;;;;;;;4.18;2.38;;;;;;;31.12;26.35;99280.94;12219668;19;20011;-82
2022/06/22 11:31:46;;;;;;;4.03;2.20;;;;;;;31.26;25.98;99269.56;12217465;19;20353;-82
2022/06/22 11:36:01;;;;;;;4.97;2.13;;;;;;;31.31;26.45;99275.69;12174392;19;20041;-81
2022/06/22 11:40:23;;;;;;;7.85;2.50;;;;;;;31.53;26.33;99273.75;12208406;19;20078;-83
2022/06/22 11:49:38;;;;;;;3.55;2.50;;;;;;;31.35;26.61;99267.19;12220329;19;20022;-82
2022/06/22 11:54:02;;;;;;;3.00;2.33;;;;;;;31.14;26.35;99262.22;12193328;19;20022;-82
2022/06/22 11:58:31;;;;;;;5.53;2.25;;;;;;;31.38;26.91;99266.38;12215332;19;20077;-81
2022/06/22 12:03:09;;;;;;;3.40;2.40;;;;;;;31.57;26.71;99256.66;12203956;19;20094;-81
2022/06/22 12:07:22;;;;;;;4.32;2.28;;;;;;;31.67;26.79;99253.00;12219379;19;20386;-81
2022/06/22 12:11:51;;;;;;;6.03;2.70;;;;;;;31.96;26.02;99253.03;12199052;19;20735;-82
2022/06/22 12:16:11;;;;;;;5.72;2.58;;;;;;;32.03;25.82;99261.56;12215893;19;20082;-81
2022/06/22 12:20:31;;;;;;;3.88;2.35;;;;;;;32.10;26.21;99257.91;12196229;19;20007;-82
2022/06/22 12:24:55;;;;;;;6.78;2.85;;;;;;;32.00;26.44;99250.97;12216559;19;20098;-83
2022/06/22 12:29:16;;;;;;;40.35;6.35;;;;;;;31.84;26.48;99242.84;12201559;19;20007;-81
2022/06/22 12:33:45;;;;;;;5.25;2.65;;;;;;;31.72;26.96;99246.09;12217993;19;20006;-82
2022/06/22 12:37:53;;;;;;;9.25;2.50;;;;;;;31.42;27.03;99235.09;12212165;19;20030;-82
2022/06/22 12:42:00;;;;;;;9.30;3.10;;;;;;;31.00;27.69;99240.25;12190519;19;20596;-82
2022/06/22 12:46:49;;;;;;;7.45;2.08;;;;;;;30.73;28.14;99236.88;12198643;19;20018;-82
2022/06/22 12:51:10;;;;;;;9.27;2.58;;;;;;;30.45;28.92;99229.00;12183940;19;20015;-81
2022/06/22 12:55:24;;;;;;;4.82;2.20;;;;;;;30.45;28.91;99225.38;12200415;19;20010;-81
2022/06/22 12:59:34;;;;;;;7.28;2.40;;;;;;;30.27;28.91;99225.25;12183264;19;20499;-82
2022/06/22 13:03:43;;;;;;;6.53;2.67;;;;;;;30.41;28.79;99225.34;12208882;19;20014;-82
2022/06/22 13:07:50;;;;;;;6.63;2.90;;;;;;;30.35;29.92;99227.75;12201216;19;20476;-82
2022/06/22 13:11:55;;;;;;;7.20;2.92;;;;;;;30.46;29.82;99218.47;12191747;19;20006;-81
2022/06/22 13:16:04;;;;;;;9.88;3.30;;;;;;;30.41;30.48;99226.16;12206822;19;20900;-81
2022/06/22 13:20:26;;;;;;;9.27;3.45;;;;;;;30.39;30.54;99220.06;12189526;19;20014;-81
2022/06/22 13:24:39;;;;;;;8.80;3.00;;;;;;;30.40;31.18;99216.00;12211469;19;20101;-81
2022/06/22 13:28:46;;;;;;;11.98;2.97;;;;;;;30.27;31.01;99214.72;12201368;19;20042;-80
2022/06/22 13:33:01;;;;;;;4.30;3.10;;;;;;;29.63;31.60;99211.41;12185696;19;20472;-81
2022/06/22 13:37:27;;;;;;;6.15;3.35;;;;;;;29.06;32.24;99209.63;12196801;19;20074;-81
2022/06/22 13:41:56;;;;;;;10.45;3.38;;;;;;;28.67;32.21;99216.81;12191186;19;20011;-82
2022/06/22 13:46:14;;;;;;;11.80;3.97;;;;;;;28.32;32.73;99218.78;12183231;19;20029;-82
2022/06/22 13:50:26;;;;;;;10.10;3.40;;;;;;;28.23;32.82;99211.75;12190454;19;20022;-83
2022/06/22 13:54:51;;;;;;;;;;;;;;;28.21;33.37;99208.50;12214147;19;21755;-81
2022/06/22 13:59:23;;;;;;;12.70;3.78;;;;;;;28.41;34.42;99210.03;12187010;19;19926;-82
2022/06/22 14:04:03;;;;;;;10.55;3.55;;;;;;;28.45;34.52;99207.25;12218225;19;20074;-82
2022/06/22 14:08:23;;;;;;;9.70;3.58;;;;;;;28.45;35.17;99208.06;12188573;19;20019;-82
2022/06/22 14:12:37;;;;;;;10.40;3.28;;;;;;;28.52;35.04;99213.81;12210766;19;20046;-83
2022/06/22 14:16:45;;;;;;;5.55;3.75;;;;;;;28.33;36.22;99211.91;12251674;19;20003;-83
2022/06/22 14:21:10;;;;;;;12.55;4.20;;;;;;;28.03;38.44;99209.06;12189675;19;20606;-82
2022/06/22 14:25:40;;;;;;;9.70;4.00;;;;;;;27.86;38.65;99209.59;12210320;19;20023;-82
2022/06/22 14:29:59;;;;;;;8.85;4.30;;;;;;;27.77;38.87;99200.53;12190194;19;20029;-82
2022/06/22 14:34:07;;;;;;;9.82;4.75;;;;;;;27.73;38.29;99206.97;12208324;19;20038;-81
2022/06/22 14:39:18;;;;;;;6.10;3.63;;;;;;;27.68;38.99;99209.28;12188746;19;20011;-83
2022/06/22 14:43:32;;;;;;;9.38;4.05;;;;;;;27.57;38.77;99209.09;12213447;19;20006;-83
2022/06/22 14:47:40;;;;;;;13.10;3.97;;;;;;;27.57;38.85;99211.94;12180578;19;20094;-82
2022/06/22 14:51:56;;;;;;;12.68;4.13;;;;;;;27.53;38.87;99202.59;12203347;19;20345;-82
2022/06/22 14:56:09;;;;;;;8.23;3.80;;;;;;;27.55;39.25;99200.19;12184004;19;20030;-82
2022/06/22 15:00:20;;;;;;;11.80;4.05;;;;;;;27.44;39.35;99210.50;12207160;19;20110;-81
2022/06/22 15:04:40;;;;;;;12.73;5.18;;;;;;;27.43;39.19;99197.56;12204337;19;20035;-82
2022/06/22 15:08:58;;;;;;;8.25;4.38;;;;;;;27.43;38.91;99198.38;12183066;19;20015;-82
2022/06/22 15:13:10;;;;;;;8.60;3.60;;;;;;;27.32;38.81;99197.38;12193238;19;20558;-82
2022/06/22 15:17:25;;;;;;;9.32;3.80;;;;;;;27.06;39.70;99203.75;12178692;19;20079;-82
2022/06/22 15:21:44;;;;;;;7.70;4.28;;;;;;;26.81;39.82;99206.91;12202500;19;20070;-82
2022/06/22 15:26:27;;;;;;;8.07;4.25;;;;;;;26.68;40.72;99199.78;12183120;19;20030;-82
2022/06/22 15:30:36;;;;;;;7.28;4.07;;;;;;;26.48;41.48;99200.97;12200191;19;20011;-82
2022/06/22 15:34:49;;;;;;;11.73;4.63;;;;;;;26.44;41.93;99198.03;12194797;19;20018;-82
2022/06/22 15:39:00;;;;;;;10.32;4.63;;;;;;;26.55;41.92;99198.28;12176219;19;20089;-82
2022/06/22 15:43:23;;;;;;;12.00;5.25;;;;;;;26.59;44.29;99204.81;12201275;19;20499;-81
2022/06/22 15:47:57;;;;;;;13.40;5.00;;;;;;;26.71;45.05;99206.69;12168467;19;20017;-82
2022/06/22 15:52:17;;;;;;;9.93;4.75;;;;;;;26.77;45.14;99206.03;12203665;19;20031;-82
2022/06/22 15:56:28;;;;;;;12.38;5.10;;;;;;;26.79;45.81;99208.47;12183342;19;20023;-82
2022/06/22 16:00:45;;;;;;;11.32;5.82;;;;;;;26.73;47.88;99205.13;12221101;19;20014;-82
2022/06/22 16:04:57;;;;;;;9.60;5.05;;;;;;;26.71;47.72;99209.50;12215049;19;20003;-82
2022/06/22 16:09:14;;;;;;;10.80;4.53;;;;;;;26.65;47.63;99209.00;12193869;19;20048;-82
2022/06/22 16:13:27;;;;;;;11.63;4.65;;;;;;;26.50;48.76;99204.25;12216912;19;20011;-83
2022/06/22 16:17:38;;;;;;;12.82;5.53;;;;;;;26.46;48.87;99211.81;12191878;19;20013;-82
2022/06/22 16:22:08;;;;;;;14.75;5.63;;;;;;;26.04;52.45;99212.50;12215955;19;20086;-81
2022/06/22 16:26:23;;;;;;;11.43;4.97;;;;;;;25.79;53.20;99214.69;12188879;19;20414;-82
2022/06/22 16:31:03;;;;;;;11.73;4.45;;;;;;;25.55;53.30;99213.72;12217231;19;20074;-82
2022/06/22 16:35:49;;;;;;;12.75;4.78;;;;;;;25.37;53.15;99206.78;12189131;19;20055;-81
2022/06/22 16:40:01;;;;;;;11.70;4.20;;;;;;;25.19;53.53;99212.81;12203019;19;20006;-81
2022/06/22 16:44:09;;;;;;;15.50;4.85;;;;;;;25.01;54.56;99211.47;12187768;19;20015;-81
2022/06/22 16:48:20;;;;;;;14.68;4.97;;;;;;;24.91;54.98;99210.00;12199032;19;20078;-82
2022/06/22 16:52:42;;;;;;;15.48;5.93;;;;;;;24.86;55.23;99210.25;12210789;19;20010;-83
2022/06/22 16:57:26;;;;;;;14.83;7.10;;;;;;;24.86;55.42;99213.06;12187088;19;20038;-82
2022/06/22 17:01:49;;;;;;;10.30;4.93;;;;;;;24.74;56.18;99196.22;12208071;19;20034;-80
2022/06/22 17:06:11;;;;;;;15.73;5.75;;;;;;;24.60;57.23;99190.19;12186237;19;20007;-80
2022/06/22 17:10:41;;;;;;;16.23;5.32;;;;;;;24.50;58.09;99181.06;12209034;19;20070;-80
2022/06/22 17:14:51;;;;;;;13.90;4.90;;;;;;;24.47;58.12;99187.41;12187317;19;20070;-81
2022/06/22 17:19:18;;;;;;;14.98;5.28;;;;;;;24.52;58.11;99183.53;12204345;19;20003;-80
2022/06/22 17:23:28;;;;;;;13.57;4.35;;;;;;;24.54;57.65;99184.81;12191680;19;20039;-83
2022/06/22 17:27:40;;;;;;;15.38;4.68;;;;;;;24.58;57.20;99175.66;12215821;19;20043;-81
2022/06/22 17:32:12;;;;;;;12.18;4.57;;;;;;;24.54;58.77;99182.00;12219581;19;20011;-81
2022/06/22 17:36:40;;;;;;;16.67;5.28;;;;;;;24.50;58.56;99186.69;12191260;19;20433;-81
2022/06/22 17:41:12;;;;;;;14.68;4.28;;;;;;;24.53;58.63;99196.44;12211792;19;20039;-82
2022/06/22 17:45:39;;;;;;;12.43;4.78;;;;;;;24.53;58.56;99197.25;12189702;19;20006;-82
2022/06/22 17:49:44;;;;;;;13.13;4.72;;;;;;;24.44;58.76;99207.03;12206291;19;20002;-81
2022/06/22 17:54:01;;;;;;;15.65;4.28;;;;;;;24.39;58.91;99216.53;12189542;19;20015;-82
2022/06/22 17:58:12;;;;;;;14.45;5.38;;;;;;;24.34;58.79;99214.78;12204303;19;20007;-83
2022/06/22 18:02:26;;;;;;;13.98;4.25;;;;;;;24.29;59.47;99215.00;12189547;19;20035;-83
2022/06/22 18:06:37;;;;;;;11.82;4.28;;;;;;;24.28;59.69;99218.22;12204724;19;20011;-82
2022/06/22 18:10:39;;;;;;;13.43;4.20;;;;;;;24.21;60.09;99209.53;12213689;19;20011;-82
2022/06/22 18:15:14;;;;;;;10.80;4.10;;;;;;;24.14;60.93;99212.13;12191435;19;20017;-83
2022/06/22 18:19:38;;;;;;;10.52;3.88;;;;;;;24.09;60.95;99213.19;12239884;19;20010;-82
2022/06/22 18:23:50;;;;;;;11.60;4.20;;;;;;;24.02;61.48;99233.50;12172403;19;20031;-83
2022/06/22 18:28:06;;;;;;;10.45;3.75;;;;;;;23.97;61.71;99230.09;12190771;19;20364;-83
2022/06/22 18:32:48;;;;;;;13.30;4.40;;;;;;;23.90;62.27;99215.81;12212464;19;20395;-83
2022/06/22 18:37:13;;;;;;;12.23;4.13;;;;;;;23.83;62.83;99213.59;12191446;19;20096;-83
2022/06/22 18:45:45;;;;;;;10.60;4.22;;;;;;;23.72;63.21;99212.44;12213023;19;20014;-82
2022/06/22 18:49:57;;;;;;;12.27;4.25;;;;;;;23.63;63.33;99207.69;12191205;19;20006;-83
2022/06/22 18:54:18;;;;;;;11.80;4.35;;;;;;;23.58;63.74;99201.50;12210664;19;20468;-84
2022/06/22 18:58:24;;;;;;;13.60;4.13;;;;;;;23.60;63.54;99205.59;12193003;19;20097;-82
2022/06/22 19:02:46;;;;;;;10.45;4.35;;;;;;;23.67;63.34;99205.81;12214738;19;20532;-83
2022/06/22 19:06:53;;;;;;;7.68;4.18;;;;;;;23.74;62.95;99210.09;12197274;19;20010;-83
2022/06/22 19:11:00;;;;;;;11.32;3.60;;;;;;;23.69;63.36;99191.41;12214002;19;20436;-83
2022/06/22 19:15:33;;;;;;;12.75;4.20;;;;;;;23.55;63.81;99202.19;12213234;19;20011;-83
2022/06/22 19:19:58;;;;;;;9.98;3.90;;;;;;;23.41;63.89;99203.38;12190769;19;20015;-83
2022/06/22 19:24:41;;;;;;;12.55;4.20;;;;;;;23.26;64.86;99203.22;12211228;19;20500;-83
2022/06/22 19:29:02;;;;;;;13.93;4.65;;;;;;;23.03;65.17;99200.84;12192971;19;20713;-83
2022/06/22 19:33:19;;;;;;;10.05;3.88;;;;;;;22.80;66.08;99200.41;12214230;19;20023;-83
2022/06/22 19:37:38;;;;;;;12.32;4.75;;;;;;;22.57;66.95;99199.16;12193727;19;20023;-83
2022/06/22 19:41:49;;;;;;;13.05;4.30;;;;;;;22.39;67.84;99224.56;12231906;19;20010;-85
2022/06/22 19:46:03;;;;;;;9.52;4.13;;;;;;;22.23;68.39;99227.19;12206038;19;20476;-84
2022/06/22 19:50:47;;;;;;;9.93;4.35;;;;;;;21.98;69.73;99236.56;12230509;19;20023;-84
2022/06/22 19:55:00;;;;;;;12.48;5.75;;;;;;;21.75;70.21;99250.91;12221947;19;20003;-84
2022/06/22 19:59:04;;;;;;;8.63;4.28;;;;;;;21.59;70.93;99253.47;12225806;19;20095;-83
2022/06/22 20:03:23;;;;;;;8.65;4.65;;;;;;;21.45;71.99;99263.25;12222746;19;20014;-84
2022/06/22 20:07:31;;;;;;;12.23;4.82;;;;;;;21.29;72.12;99265.72;12194867;19;20447;-81
2022/06/22 20:11:53;;;;;;;10.45;4.55;;;;;;;21.15;73.45;99272.38;12222602;19;20010;-84
2022/06/22 20:15:55;;;;;;;11.17;4.40;;;;;;;21.02;74.06;99283.75;12201464;19;20081;-82
2022/06/22 20:19:57;;;;;;;14.50;4.20;;;;;;;20.92;74.22;99294.16;12218579;19;20136;-82